sensor_id;sensor_type;location;lat;lon;timestamp;P1;durP1;ratioP1;P2;durP2;ratioP2
31686;SDS011;18285;51.330;4.946;2022-11-30T00:02:09;9.95;;;7.50;;
31686;SDS011;18285;51.330;4.946;2022-11-30T00:26:19;13.50;;;8.60;;
31686;SDS011;18285;51.330;4.946;2022-11-30T00:50:31;13.73;;;8.65;;
31686;SDS011;18285;51.330;4.946;2022-11-30T01:14:42;10.57;;;8.65;;
31686;SDS011;18285;51.330;4.946;2022-11-30T01:38:54;12.60;;;9.02;;
31686;SDS011;18285;51.330;4.946;2022-11-30T02:03:09;12.55;;;9.98;;
31686;SDS011;18285;51.330;4.946;2022-11-30T02:52:18;12.38;;;9.10;;
31686;SDS011;18285;51.330;4.946;2022-11-30T03:16:35;12.40;;;9.90;;
31686;SDS011;18285;51.330;4.946;2022-11-30T03:40:47;12.77;;;9.88;;
31686;SDS011;18285;51.330;4.946;2022-11-30T04:29:08;15.38;;;11.60;;
31686;SDS011;18285;51.330;4.946;2022-11-30T04:53:18;19.23;;;13.13;;
31686;SDS011;18285;51.330;4.946;2022-11-30T05:17:29;17.47;;;13.17;;
31686;SDS011;18285;51.330;4.946;2022-11-30T05:41:40;16.50;;;12.80;;
31686;SDS011;18285;51.330;4.946;2022-11-30T06:05:51;17.50;;;11.90;;
31686;SDS011;18285;51.330;4.946;2022-11-30T06:54:12;21.93;;;12.70;;
31686;SDS011;18285;51.330;4.946;2022-11-30T07:18:23;17.97;;;11.73;;
31686;SDS011;18285;51.330;4.946;2022-11-30T07:42:34;18.07;;;10.80;;
31686;SDS011;18285;51.330;4.946;2022-11-30T08:06:45;11.63;;;8.80;;
31686;SDS011;18285;51.330;4.946;2022-11-30T08:30:59;10.30;;;7.83;;
31686;SDS011;18285;51.330;4.946;2022-11-30T08:55:10;10.05;;;7.68;;
31686;SDS011;18285;51.330;4.946;2022-11-30T09:19:21;8.93;;;7.50;;
31686;SDS011;18285;51.330;4.946;2022-11-30T09:43:39;7.77;;;6.77;;
31686;SDS011;18285;51.330;4.946;2022-11-30T10:32:36;6.85;;;6.13;;
31686;SDS011;18285;51.330;4.946;2022-11-30T10:56:49;5.75;;;5.18;;
31686;SDS011;18285;51.330;4.946;2022-11-30T11:45:29;7.35;;;5.53;;
31686;SDS011;18285;51.330;4.946;2022-11-30T12:09:50;7.80;;;4.90;;
31686;SDS011;18285;51.330;4.946;2022-11-30T13:48:25;8.93;;;7.05;;
31686;SDS011;18285;51.330;4.946;2022-11-30T14:12:46;9.77;;;4.72;;
31686;SDS011;18285;51.330;4.946;2022-11-30T14:37:21;4.70;;;3.90;;
31686;SDS011;18285;51.330;4.946;2022-11-30T15:01:34;5.95;;;5.05;;
31686;SDS011;18285;51.330;4.946;2022-11-30T15:25:51;6.47;;;4.07;;
31686;SDS011;18285;51.330;4.946;2022-11-30T16:14:50;6.43;;;4.18;;
31686;SDS011;18285;51.330;4.946;2022-11-30T17:03:17;11.50;;;8.40;;
31686;SDS011;18285;51.330;4.946;2022-11-30T17:27:38;11.93;;;6.57;;
31686;SDS011;18285;51.330;4.946;2022-11-30T17:51:49;7.93;;;6.03;;
31686;SDS011;18285;51.330;4.946;2022-11-30T18:16:07;7.60;;;5.60;;
31686;SDS011;18285;51.330;4.946;2022-11-30T18:40:19;8.77;;;5.70;;
31686;SDS011;18285;51.330;4.946;2022-11-30T19:04:30;6.77;;;5.33;;
31686;SDS011;18285;51.330;4.946;2022-11-30T19:28:41;6.10;;;4.90;;
31686;SDS011;18285;51.330;4.946;2022-11-30T19:52:53;8.50;;;5.57;;
31686;SDS011;18285;51.330;4.946;2022-11-30T20:17:03;10.30;;;5.40;;
31686;SDS011;18285;51.330;4.946;2022-11-30T20:41:17;8.33;;;5.00;;
31686;SDS011;18285;51.330;4.946;2022-11-30T21:05:29;8.07;;;5.10;;
31686;SDS011;18285;51.330;4.946;2022-11-30T21:29:41;8.75;;;5.03;;
31686;SDS011;18285;51.330;4.946;2022-11-30T21:53:53;7.90;;;5.20;;
31686;SDS011;18285;51.330;4.946;2022-11-30T22:18:05;5.85;;;4.90;;
31686;SDS011;18285;51.330;4.946;2022-11-30T23:06:27;5.82;;;4.55;;
31686;SDS011;18285;51.330;4.946;2022-11-30T23:30:38;6.80;;;4.63;;
31686;SDS011;18285;51.330;4.946;2022-11-30T23:54:48;5.00;;;4.50;;
